Time;durP1;ratioP1;P1;durP2;ratioP2;P2;SDS_P1;SDS_P2;PMS_P1;PMS_P2;Temp;Humidity;BMP_temperature;BMP_pressure;BME280_temperature;BME280_humidity;BME280_pressure;Samples;Min_cycle;Max_cycle;Signal;HPM_P1;HPM_P2
2021/10/23 00:00:30;;;;;;;;;;;;;;;;;;;;;
2021/10/23 00:03:54;;;;;;;;;;;;;;;;;;;;;
2021/10/23 00:07:31;;;;;;;;;;;;;;;;;;;;;
2021/10/23 00:10:38;;;;;;;8.40;6.30;;;;;;;22.05;47.16;100964.98;109944;1245;72599;-85
2021/10/23 00:13:46;;;;;;;7.60;6.30;;;;;;;22.04;47.11;100960.87;109981;1245;73416;-88
2021/10/23 00:17:13;;;;;;;7.20;5.80;;;;;;;22.04;47.17;100962.33;110007;1247;60823;-89
2021/10/23 00:20:33;;;;;;;8.20;5.90;;;;;;;22.04;47.08;100961.05;109899;1247;61188;-85
2021/10/23 00:23:41;;;;;;;8.00;6.00;;;;;;;22.04;47.21;100959.48;109846;1248;72633;-84
2021/10/23 00:27:09;;;;;;;7.50;6.20;;;;;;;22.04;47.12;100963.58;109857;1248;72745;-88
2021/10/23 00:30:24;;;;;;;;;;;;;;;;;;;;;
2021/10/23 00:34:13;;;;;;;7.80;5.90;;;;;;;22.03;47.13;100964.17;110060;1244;59455;-87
2021/10/23 00:37:19;;;;;;;7.80;6.00;;;;;;;22.03;47.30;100958.29;110012;1247;72372;-79
2021/10/23 00:40:37;;;;;;;7.50;5.90;;;;;;;22.03;47.18;100959.14;109871;1248;72706;-83
2021/10/23 00:43:37;;;;;;;8.80;6.40;;;;;;;22.03;47.16;100962.02;109844;1250;61078;-91
2021/10/23 00:46:53;;;;;;;;;;;;;;;;;;;;;
2021/10/23 00:50:04;;;;;;;;;;;;;;;;;;;;;
2021/10/23 00:53:32;;;;;;;8.50;5.90;;;;;;;22.03;47.15;100948.99;109835;1251;72893;-82
2021/10/23 00:56:35;;;;;;;;;;;;;;;;;;;;;
2021/10/23 00:59:51;;;;;;;;;;;;;;;;;;;;;
2021/10/23 01:03:13;;;;;;;7.40;6.00;;;;;;;22.01;47.34;100942.44;109377;1250;72744;-78
2021/10/23 01:06:36;;;;;;;8.70;5.90;;;;;;;22.02;47.22;100947.27;110003;1244;74081;-83
2021/10/23 01:10:05;;;;;;;;;;;;;;;;;;;;;
2021/10/23 01:13:33;;;;;;;;;;;;;;;;;;;;;
2021/10/23 01:17:02;;;;;;;8.20;6.00;;;;;;;22.01;47.30;100950.18;110816;1236;71338;-86
2021/10/23 01:20:32;;;;;;;7.40;6.00;;;;;;;22.01;47.24;100952.87;110973;1234;73293;-79
2021/10/23 01:23:41;;;;;;;7.80;6.00;;;;;;;22.01;47.30;100946.07;110825;1237;59955;-88
2021/10/23 01:27:07;;;;;;;7.60;6.30;;;;;;;22.00;47.35;100945.92;110447;1238;60191;-85
2021/10/23 01:34:20;;;;;;;7.80;6.30;;;;;;;22.00;47.39;100945.07;110231;1243;71886;-82
2021/10/23 01:37:59;;;;;;;;;;;;;;;;;;;;;
2021/10/23 01:41:18;;;;;;;7.60;6.30;;;;;;;22.00;47.42;100948.10;110240;1244;59551;-87
2021/10/23 01:44:45;;;;;;;7.30;5.60;;;;;;;22.00;47.25;100942.55;110005;1245;74486;-85
2021/10/23 01:48:11;;;;;;;7.30;6.40;;;;;;;22.00;47.33;100945.39;110047;1246;72950;-80
2021/10/23 01:51:23;;;;;;;;;;;;;;;;;;;;;
2021/10/23 01:54:59;;;;;;;;;;;;;;;;;;;;;
2021/10/23 01:59:01;;;;;;;8.00;6.00;;;;;;;21.99;47.35;100945.31;110180;1244;73953;-85
2021/10/23 02:02:47;;;;;;;6.60;5.40;;;;;;;21.99;47.42;100944.41;110187;1244;73726;-87
2021/10/23 02:05:46;;;;;;;7.90;6.10;;;;;;;21.99;47.54;100948.00;110198;1245;61045;-88
2021/10/23 02:12:25;;;;;;;6.50;5.20;;;;;;;21.99;47.49;100958.58;110020;1246;72739;-87
2021/10/23 02:15:43;;;;;;;;;;;;;;;;;;;;;
2021/10/23 02:18:52;;;;;;;7.70;5.90;;;;;;;21.99;47.43;100972.02;109901;1247;60139;-88
2021/10/23 02:21:48;;;;;;;7.10;5.90;;;;;;;21.98;47.48;100974.39;110027;1245;60365;-89
2021/10/23 02:25:15;;;;;;;8.40;5.80;;;;;;;21.99;47.48;100973.66;110081;1244;73946;-86
2021/10/23 02:28:21;;;;;;;6.70;5.60;;;;;;;21.98;47.51;100977.11;110043;1245;74948;-87
2021/10/23 02:32:02;;;;;;;;;;;;;;;;;;;;;
2021/10/23 02:35:19;;;;;;;7.40;5.50;;;;;;;21.97;47.43;100982.54;110146;1242;61507;-85
2021/10/23 02:42:15;;;;;;;7.90;6.00;;;;;;;21.97;47.62;100983.13;110339;1242;73670;-83
2021/10/23 02:45:03;;;;;;;;;;;;;;;21.97;47.57;100983.11;110554;1239;61003;-84
2021/10/23 02:58:43;;;;;;;7.50;6.10;;;;;;;21.95;47.56;100959.04;110239;1242;60226;-83
2021/10/23 03:01:49;;;;;;;7.80;6.20;;;;;;;21.95;47.55;100955.98;110315;1241;60323;-82
2021/10/23 03:11:44;;;;;;;7.90;5.90;;;;;;;21.95;47.49;100946.70;110237;1242;60349;-82
2021/10/23 03:15:00;;;;;;;;;;;;;;;;;;;;;
2021/10/23 03:18:37;;;;;;;7.60;6.40;;;;;;;21.92;47.60;100943.65;109983;1245;72686;-85
2021/10/23 03:21:46;;;;;;;6.80;5.60;;;;;;;21.93;47.52;100947.14;109978;1244;74880;-83
2021/10/23 03:25:12;;;;;;;;;;;;;;;;;;;;;
2021/10/23 03:28:50;;;;;;;8.50;5.80;;;;;;;21.92;47.62;100964.42;109936;1248;61674;-78
2021/10/23 03:35:31;;;;;;;;;;;;;;;;;;;;;
2021/10/23 03:38:41;;;;;;;7.40;5.60;;;;;;;21.93;47.55;100977.48;110017;1245;60245;-80
2021/10/23 03:41:47;;;;;;;7.30;5.40;;;;;;;21.93;47.56;100984.77;109934;1245;60319;-77
2021/10/23 03:48:21;;;;;;;7.50;5.90;;;;;;;21.92;47.57;101008.30;110001;1247;73917;-84
2021/10/23 03:51:27;;;;;;;7.80;6.30;;;;;;;21.92;47.71;101017.98;109897;1248;60263;-88
2021/10/23 03:54:45;;;;;;;;;;;;;;;;;;;;;
2021/10/23 03:58:11;;;;;;;;;;;;;;;;;;;;;
2021/10/23 04:01:30;;;;;;;7.90;6.20;;;;;;;21.92;47.76;101002.95;110006;1246;74822;-78
2021/10/23 04:05:00;;;;;;;8.60;5.50;;;;;;;21.92;47.74;100998.65;110137;1245;60220;-85
2021/10/23 04:08:37;;;;;;;;;;;;;;;;;;;;;
2021/10/23 04:12:13;;;;;;;;;;;;;;;;;;;;;
2021/10/23 04:15:33;;;;;;;8.20;6.20;;;;;;;21.91;47.66;100981.15;110217;1241;74002;-78
2021/10/23 04:19:10;;;;;;;7.70;6.20;;;;;;;21.91;47.68;100981.89;110284;1240;60317;-80
2021/10/23 04:21:56;;;;;;;8.70;6.30;;;;;;;21.91;47.80;100993.36;110459;1241;61832;-87
2021/10/23 04:25:05;;;;;;;8.70;6.40;;;;;;;21.91;47.69;100997.45;110299;1240;72744;-87
2021/10/23 04:28:12;;;;;;;8.30;6.00;;;;;;;21.92;47.75;100993.30;110592;1240;73639;-90
2021/10/23 04:31:57;;;;;;;;;;;;;;;;;;;;;
2021/10/23 04:35:35;;;;;;;7.20;5.60;;;;;;;21.91;47.77;100994.77;110325;1241;60233;-85
2021/10/23 04:39:01;;;;;;;;;;;;;;;;;;;;;
2021/10/23 04:42:31;;;;;;;8.00;6.40;;;;;;;21.90;47.76;101000.55;110428;1241;73792;-86
2021/10/23 04:46:08;;;;;;;;;;;;;;;;;;;;;
2021/10/23 04:49:55;;;;;;;8.10;6.30;;;;;;;21.91;47.79;101010.38;110116;1244;60175;-86
2021/10/23 04:53:01;;;;;;;8.40;6.10;;;;;;;21.90;47.79;101007.38;110166;1243;73914;-85
2021/10/23 04:56:29;;;;;;;7.40;5.90;;;;;;;21.91;47.83;101010.92;110142;1243;74295;-82
2021/10/23 04:59:45;;;;;;;;;;;;;;;;;;;;;
2021/10/23 05:03:14;;;;;;;;;;;;;;;;;;;;;
2021/10/23 05:10:03;;;;;;;;;;;;;;;;;;;;;
2021/10/23 05:20:41;;;;;;;;;;;;;;;;;;;;;
2021/10/23 05:35:42;;;;;;;8.40;6.10;;;;;;;21.91;47.75;101055.52;111241;1234;73435;-86
2021/10/23 05:42:22;;;;;;;;;;;;;;;;;;;;;
2021/10/23 05:45:49;;;;;;;;;;;;;;;;;;;;;
2021/10/23 05:48:48;;;;;;;;;;;;;;;;;;;;;
2021/10/23 05:52:38;;;;;;;8.70;6.30;;;;;;;21.96;47.93;101074.17;113245;1208;601745;-79
2021/10/23 05:59:42;;;;;;;7.60;6.50;;;;;;;21.93;47.83;101093.05;113009;1216;58955;-83
2021/10/23 06:06:28;;;;;;;8.10;6.20;;;;;;;21.92;47.65;101106.30;111969;1227;71213;-85
2021/10/23 06:10:04;;;;;;;;;;;;;;;;;;;;;
2021/10/23 06:13:34;;;;;;;;;;;;;;;;;;;;;
2021/10/23 06:23:56;;;;;;;;;;;;;;;;;;;;;
2021/10/23 06:28:12;;;;;;;7.50;5.80;;;;;;;21.97;47.85;101146.89;113017;1209;601278;-87
2021/10/23 06:31:56;;;;;;;7.50;6.00;;;;;;;21.93;47.82;101145.17;113181;1214;70856;-82
2021/10/23 06:35:12;;;;;;;;;;;;;;;;;;;;;
2021/10/23 06:50:00;;;;;;;8.30;6.20;;;;;;;21.91;47.67;101151.38;110655;1238;59087;-88
2021/10/23 06:53:17;;;;;;;;;;;;;;;;;;;;;
2021/10/23 06:56:47;;;;;;;7.90;6.30;;;;;;;21.96;47.71;101171.49;113427;1204;601153;-88
2021/10/23 07:07:51;;;;;;;8.40;6.40;;;;;;;21.93;47.72;101203.42;112886;1219;59054;-84
2021/10/23 07:11:15;;;;;;;;;;;;;;;;;;;;;
2021/10/23 07:14:52;;;;;;;;;;;;;;;;;;;;;
2021/10/23 07:18:42;;;;;;;;;;;;;;;;;;;;;
2021/10/23 07:22:59;;;;;;;8.90;6.20;;;;;;;21.92;47.85;101214.56;111002;1235;59114;-86
2021/10/23 07:29:19;;;;;;;;;;;;;;;;;;;;;
2021/10/23 07:32:55;;;;;;;;;;;;;;;;;;;;;
2021/10/23 07:36:14;;;;;;;;;;;;;;;;;;;;;
2021/10/23 07:39:33;;;;;;;;;;;;;;;;;;;;;
2021/10/23 07:43:20;;;;;;;8.20;6.20;;;;;;;21.92;47.87;101237.70;110257;1242;71766;-86
2021/10/23 07:46:26;;;;;;;9.00;6.10;;;;;;;21.92;47.97;101248.80;110065;1244;61409;-81
2021/10/23 07:49:42;;;;;;;;;;;;;;;;;;;;;
2021/10/23 07:53:19;;;;;;;7.80;5.80;;;;;;;21.93;47.92;101245.89;109644;1249;73094;-83
2021/10/23 07:57:15;;;;;;;;;;;;;;;;;;;;;
2021/10/23 08:00:52;;;;;;;;;;;;;;;;;;;;;
2021/10/23 08:04:28;;;;;;;7.90;5.90;;;;;;;21.94;47.93;101243.31;109871;1248;60280;-88
2021/10/23 08:07:44;;;;;;;;;;;;;;;;;;;;;
2021/10/23 08:11:35;;;;;;;;;;;;;;;;;;;;;
2021/10/23 08:15:17;;;;;;;;;;;;;;;;;;;;;
2021/10/23 08:18:53;;;;;;;;;;;;;;;;;;;;;
2021/10/23 08:22:22;;;;;;;;;;;;;;;;;;;;;
2021/10/23 08:25:59;;;;;;;9.10;6.60;;;;;;;21.95;48.11;101269.25;109989;1246;72410;-90
2021/10/23 08:29:28;;;;;;;;;;;;;;;;;;;;;
2021/10/23 08:33:06;;;;;;;9.30;6.40;;;;;;;21.95;48.09;101275.32;109906;1247;59039;-83
2021/10/23 08:36:03;;;;;;;;;;;;;;;;;;;;;
2021/10/23 08:40:12;;;;;;;8.40;6.30;;;;;;;21.95;48.13;101280.54;109854;1248;73641;-88
2021/10/23 08:43:48;;;;;;;8.80;6.70;;;;;;;21.95;48.06;101283.42;110023;1247;60250;-88
2021/10/23 08:50:39;;;;;;;;;;;;;;;;;;;;;
2021/10/23 08:54:04;;;;;;;;;;;;;;;;;;;;;
2021/10/23 08:58:19;;;;;;;;;;;;;;;;;;;;;
2021/10/23 09:01:40;;;;;;;7.70;6.00;;;;;;;21.94;48.05;101270.73;110003;1247;60109;-84
2021/10/23 09:04:56;;;;;;;;;;;;;;;;;;;;;
2021/10/23 09:08:33;;;;;;;8.20;6.10;;;;;;;21.93;48.14;101282.77;109853;1247;71738;-86
2021/10/23 09:15:48;;;;;;;;;;;;;;;;;;;;;
2021/10/23 09:19:20;;;;;;;7.10;5.70;;;;;;;21.93;48.13;101284.55;109743;1249;71214;-86
2021/10/23 09:23:30;;;;;;;;;;;;;;;;;;;;;
2021/10/23 09:26:56;;;;;;;5.30;3.70;;;;;;;21.93;48.18;101283.65;109879;1247;59424;-79
2021/10/23 09:30:22;;;;;;;8.60;6.40;;;;;;;21.94;48.21;101289.57;109490;1250;59499;-85
2021/10/23 09:37:22;;;;;;;;;;;;;;;;;;;;;
2021/10/23 09:40:13;;;;;;;7.40;5.60;;;;;;;21.96;48.29;101293.54;113170;1214;72129;-83
2021/10/23 09:43:29;;;;;;;8.30;6.30;;;;;;;21.97;48.10;101296.73;112930;1219;59809;-83
2021/10/23 09:46:55;;;;;;;7.50;6.00;;;;;;;21.96;48.17;101301.44;112484;1224;59045;-79
2021/10/23 09:50:01;;;;;;;8.10;6.10;;;;;;;21.96;48.12;101300.90;112100;1227;71806;-89
2021/10/23 09:53:59;;;;;;;9.40;6.20;;;;;;;21.96;48.17;101300.36;112024;1227;72110;-85
2021/10/23 09:56:51;;;;;;;6.80;5.50;;;;;;;21.96;48.15;101305.93;111690;1230;60660;-84
2021/10/23 10:00:05;;;;;;;7.80;6.10;;;;;;;21.95;48.14;101305.98;111736;1230;58946;-85
2021/10/23 10:03:17;;;;;;;8.40;5.80;;;;;;;21.96;48.14;101300.94;111637;1230;71522;-83
2021/10/23 10:06:18;;;;;;;9.00;6.80;;;;;;;21.95;48.14;101305.98;111302;1233;73438;-85
2021/10/23 10:09:46;;;;;;;7.60;6.00;;;;;;;21.94;48.14;101306.73;110974;1236;61506;-80
2021/10/23 10:13:14;;;;;;;;;;;;;;;;;;;;;
2021/10/23 10:16:25;;;;;;;7.70;5.90;;;;;;;21.94;48.18;101307.80;110191;1241;73704;-80
2021/10/23 10:19:43;;;;;;;6.60;5.70;;;;;;;21.94;48.33;101305.66;110306;1241;73158;-87
2021/10/23 10:22:57;;;;;;;7.80;6.10;;;;;;;21.94;48.23;101297.81;110796;1236;59937;-85
2021/10/23 10:29:58;;;;;;;7.10;5.80;;;;;;;21.93;48.23;101287.09;110932;1235;73562;-89
2021/10/23 10:33:16;;;;;;;;;;;;;;;;;;;;;
2021/10/23 10:37:12;;;;;;;7.90;6.30;;;;;;;21.92;48.30;101277.99;110752;1237;61187;-85
2021/10/23 10:40:12;;;;;;;;;;;;;;;;;;;;;
2021/10/23 10:43:43;;;;;;;;;;;;;;;;;;;;;
2021/10/23 10:46:52;;;;;;;7.80;6.10;;;;;;;21.92;48.34;101276.95;110953;1236;72323;-85
2021/10/23 10:50:14;;;;;;;;;;;;;;;;;;;;;
2021/10/23 10:53:21;;;;;;;;;;;;;;;;;;;;;
2021/10/23 10:56:10;;;;;;;8.30;5.70;;;;;;;21.91;48.25;101273.77;111339;1230;72908;-81
2021/10/23 10:59:19;;;;;;;;;;;;;;;;;;;;;
2021/10/23 11:02:19;;;;;;;7.10;5.90;;;;;;;21.92;48.33;101271.42;111478;1228;60105;-80
2021/10/23 11:05:40;;;;;;;;;;;;;;;;;;;;;
2021/10/23 11:08:52;;;;;;;6.80;5.60;;;;;;;21.91;48.33;101270.90;111798;1228;73539;-85
2021/10/23 11:12:10;;;;;;;;;;;;;;;;;;;;;
2021/10/23 11:15:34;;;;;;;;;;;;;;;;;;;;;
2021/10/23 11:18:38;;;;;;;7.50;5.50;;;;;;;21.91;48.49;101261.75;112052;1227;61339;-84
2021/10/23 11:22:04;;;;;;;7.00;5.30;;;;;;;21.91;48.40;101260.88;111564;1230;71201;-86
2021/10/23 11:25:41;;;;;;;7.90;5.70;;;;;;;21.92;48.35;101264.80;111067;1234;72457;-83
2021/10/23 11:28:34;;;;;;;7.20;5.30;;;;;;;21.91;48.36;101268.77;110614;1238;60517;-82
2021/10/23 11:32:03;;;;;;;6.70;5.20;;;;;;;21.92;48.40;101258.69;110560;1239;59405;-89
2021/10/23 11:35:29;;;;;;;;;;;;;;;21.92;48.38;101257.81;110292;1243;72455;-84
2021/10/23 11:39:24;;;;;;;6.70;5.40;;;;;;;21.90;48.38;101258.27;110146;1244;73941;-85
2021/10/23 11:42:23;;;;;;;;;;;;;;;;;;;;;
2021/10/23 12:00:15;;;;;;;;;;;;;;;;;;;;;
2021/10/23 12:03:24;;;;;;;7.70;5.90;;;;;;;21.89;48.36;101252.98;109214;1251;72824;-87
2021/10/23 12:06:48;;;;;;;7.50;5.50;;;;;;;21.88;48.51;101246.73;109837;1247;73116;-85
2021/10/23 12:09:55;;;;;;;8.40;5.40;;;;;;;21.89;48.43;101245.26;109637;1248;59959;-83
2021/10/23 12:13:29;;;;;;;6.10;5.20;;;;;;;21.88;48.43;101237.05;109883;1246;61073;-78
2021/10/23 12:17:11;;;;;;;6.80;5.60;;;;;;;21.89;48.44;101245.11;110005;1244;71300;-82
2021/10/23 12:20:06;;;;;;;;;;;;;;;;;;;;;
2021/10/23 12:27:21;;;;;;;7.20;5.80;;;;;;;21.89;48.50;101247.78;109646;1246;61239;-85
2021/10/23 12:30:40;;;;;;;;;;;;;;;;;;;;;
2021/10/23 12:33:55;;;;;;;6.30;5.40;;;;;;;21.90;48.51;101260.97;110022;1243;73083;-85
2021/10/23 12:37:26;;;;;;;6.80;5.50;;;;;;;21.90;48.45;101256.67;110251;1241;60075;-87
2021/10/23 12:40:59;;;;;;;6.70;4.40;;;;;;;21.89;48.47;101259.38;110249;1243;61568;-85
2021/10/23 12:44:24;;;;;;;8.50;5.50;;;;;;;21.89;48.47;101263.33;110456;1239;73514;-87
2021/10/23 12:47:19;;;;;;;6.40;5.40;;;;;;;21.90;48.45;101266.17;110568;1241;74101;-79
2021/10/23 12:50:44;;;;;;;;;;;;;;;;;;;;;
2021/10/23 12:53:41;;;;;;;7.50;5.30;;;;;;;21.90;48.49;101266.19;111087;1234;59439;-86
2021/10/23 12:56:58;;;;;;;;;;;;;;;;;;;;;
2021/10/23 13:00:04;;;;;;;6.50;5.00;;;;;;;21.90;48.56;101269.39;111326;1227;74367;-81
2021/10/23 13:03:16;;;;;;;;;;;;;;;21.90;48.51;101270.47;111872;1227;60229;-88
2021/10/23 13:06:25;;;;;;;;;;;;;;;;;;;;;
2021/10/23 13:09:33;;;;;;;;;;;;;;;;;;;;;
2021/10/23 13:12:57;;;;;;;9.20;5.50;;;;;;;21.88;48.50;101265.90;111529;1230;73545;-90
2021/10/23 13:16:32;;;;;;;8.40;5.30;;;;;;;21.87;48.61;101269.17;111011;1234;59887;-85
2021/10/23 13:19:40;;;;;;;7.30;5.40;;;;;;;21.88;48.50;101263.77;111009;1235;59479;-78
2021/10/23 13:22:47;;;;;;;7.10;5.60;;;;;;;21.88;48.56;101254.27;110605;1239;71222;-86
2021/10/23 13:26:34;;;;;;;7.00;5.40;;;;;;;21.88;48.51;101258.93;110299;1241;74413;-90
2021/10/23 13:29:41;;;;;;;;;;;;;;;;;;;;;
2021/10/23 13:32:57;;;;;;;9.00;5.40;;;;;;;21.88;48.59;101244.96;110049;1244;60538;-80
2021/10/23 13:35:57;;;;;;;;;;;;;;;;;;;;;
2021/10/23 13:39:42;;;;;;;;;;;;;;;;;;;;;
2021/10/23 13:42:58;;;;;;;7.50;5.60;;;;;;;21.87;48.55;101241.84;109175;1250;60083;-81
2021/10/23 13:46:09;;;;;;;;;;;;;;;21.86;48.58;101238.09;109418;1249;60597;-81
2021/10/23 13:48:59;;;;;;;8.30;5.70;;;;;;;21.87;48.57;101239.11;109343;1250;71440;-80
2021/10/23 13:52:19;;;;;;;7.90;5.50;;;;;;;21.87;48.65;101241.05;109881;1246;71732;-83
2021/10/23 13:55:29;;;;;;;6.60;5.20;;;;;;;21.87;48.60;101235.52;109842;1248;60074;-79
2021/10/23 13:58:57;;;;;;;7.30;5.30;;;;;;;21.88;48.73;101232.98;109832;1248;60756;-81
2021/10/23 14:02:26;;;;;;;7.40;5.00;;;;;;;21.88;48.69;101236.70;110021;1244;73980;-82
2021/10/23 14:05:28;;;;;;;7.40;5.20;;;;;;;21.88;48.65;101229.32;110215;1240;71818;-84
2021/10/23 14:08:44;;;;;;;6.70;5.20;;;;;;;21.89;48.73;101223.90;110615;1238;60141;-80
2021/10/23 14:11:55;;;;;;;;;;;;;;;;;;;;;
2021/10/23 14:14:50;;;;;;;;;;;;;;;;;;;;;
2021/10/23 14:18:04;;;;;;;7.00;5.30;;;;;;;21.89;48.55;101230.38;111460;1230;73629;-82
2021/10/23 14:21:30;;;;;;;6.50;5.20;;;;;;;21.89;48.64;101229.34;111406;1230;60216;-86
2021/10/23 14:24:29;;;;;;;6.90;5.30;;;;;;;21.89;48.70;101233.41;111256;1230;61157;-80
2021/10/23 14:31:17;;;;;;;7.70;5.60;;;;;;;21.89;48.67;101234.66;110746;1233;72771;-80
2021/10/23 14:34:19;;;;;;;8.00;5.40;;;;;;;21.90;48.64;101239.45;111575;1230;60148;-88
2021/10/23 14:37:55;;;;;;;6.90;4.90;;;;;;;21.90;48.68;101242.81;110762;1236;60784;-83
2021/10/23 14:40:59;;;;;;;;;;;;;;;;;;;;;
2021/10/23 14:44:30;;;;;;;7.40;5.20;;;;;;;21.91;48.55;101249.76;110549;1239;70570;-85
2021/10/23 14:51:08;;;;;;;;;;;;;;;;;;;;;
2021/10/23 14:57:09;;;;;;;7.40;5.10;;;;;;;21.91;48.65;101250.67;110018;1246;73143;-86
2021/10/23 15:00:36;;;;;;;8.10;5.70;;;;;;;21.91;48.66;101253.35;110203;1244;59445;-87
2021/10/23 15:04:13;;;;;;;;;;;;;;;;;;;;;
2021/10/23 15:07:12;;;;;;;6.80;5.00;;;;;;;21.90;48.72;101255.91;109991;1246;73699;-86
2021/10/23 15:10:13;;;;;;;5.30;3.90;;;;;;;21.91;48.78;101261.23;110027;1246;75078;-81
2021/10/23 15:13:30;;;;;;;6.30;5.50;;;;;;;21.90;48.76;101258.41;110029;1246;60796;-84
2021/10/23 15:16:45;;;;;;;7.10;5.50;;;;;;;21.90;48.71;101258.96;110219;1244;61527;-85
2021/10/23 15:20:02;;;;;;;;;;;;;;;;;;;;;
2021/10/23 15:23:07;;;;;;;;;;;;;;;;;;;;;
2021/10/23 15:26:26;;;;;;;7.60;5.50;;;;;;;21.90;48.81;101265.27;110504;1241;60220;-84
2021/10/23 15:29:30;;;;;;;;;;;;;;;;;;;;;
2021/10/23 15:32:45;;;;;;;6.90;5.30;;;;;;;21.90;48.85;101273.31;110469;1238;72577;-85
2021/10/23 15:39:10;;;;;;;7.90;6.10;;;;;;;21.89;48.82;101275.72;110559;1239;60294;-88
2021/10/23 15:42:18;;;;;;;7.90;6.00;;;;;;;21.90;48.91;101280.84;110747;1238;60273;-84
2021/10/23 15:45:28;;;;;;;;;;;;;;;;;;;;;
2021/10/23 15:48:41;;;;;;;8.40;6.50;;;;;;;21.89;48.80;101290.95;110872;1236;74726;-82
2021/10/23 15:52:10;;;;;;;7.50;5.80;;;;;;;21.88;48.89;101292.44;110773;1237;60111;-85
2021/10/23 15:55:42;;;;;;;7.40;5.80;;;;;;;21.87;48.82;101299.29;110541;1241;60343;-88
2021/10/23 15:58:48;;;;;;;7.60;6.10;;;;;;;21.88;48.87;101305.55;110562;1240;72925;-86
2021/10/23 16:02:27;;;;;;;7.90;5.90;;;;;;;21.87;48.83;101310.08;110549;1241;72530;-84
2021/10/23 16:05:44;;;;;;;7.50;6.30;;;;;;;21.87;48.83;101314.73;110415;1241;60184;-83
2021/10/23 16:08:29;;;;;;;;;;;;;;;21.87;48.79;101316.17;110382;1241;60165;-81
2021/10/23 16:11:56;;;;;;;8.00;6.00;;;;;;;21.84;48.89;101318.85;110586;1238;73928;-82
2021/10/23 16:14:54;;;;;;;;;;;;;;;;;;;;;
2021/10/23 16:18:49;;;;;;;8.70;6.20;;;;;;;21.84;48.83;101332.11;110724;1238;61244;-83
2021/10/23 16:21:41;;;;;;;8.30;6.20;;;;;;;21.84;48.80;101341.08;110802;1235;61114;-83
2021/10/23 16:25:08;;;;;;;9.10;6.60;;;;;;;21.84;48.83;101341.95;111075;1235;72955;-87
2021/10/23 16:27:59;;;;;;;8.80;6.70;;;;;;;21.85;48.86;101345.48;111021;1235;74833;-86
2021/10/23 16:31:26;;;;;;;8.80;6.60;;;;;;;21.84;48.95;101347.87;111168;1230;60231;-87
2021/10/23 16:34:10;;;;;;;;;;;;;;;;;;;;;
2021/10/23 16:37:25;;;;;;;8.40;6.50;;;;;;;21.84;48.92;101356.86;112034;1226;73927;-83
2021/10/23 16:40:50;;;;;;;;;;;;;;;;;;;;;
2021/10/23 16:43:54;;;;;;;7.90;6.10;;;;;;;21.84;49.01;101362.26;112063;1226;61105;-86
2021/10/23 16:47:35;;;;;;;9.30;6.50;;;;;;;21.83;48.86;101365.15;112085;1226;60171;-86
2021/10/23 16:50:33;;;;;;;;;;;;;;;;;;;;;
2021/10/23 16:53:45;;;;;;;8.80;6.80;;;;;;;21.84;48.96;101364.77;112069;1227;72544;-85
2021/10/23 16:56:52;;;;;;;8.30;6.30;;;;;;;21.83;48.85;101364.45;112102;1226;61572;-86
2021/10/23 16:59:55;;;;;;;8.20;5.90;;;;;;;21.83;49.00;101368.92;111957;1227;60294;-88
2021/10/23 17:03:11;;;;;;;;;;;;;;;;;;;;;
2021/10/23 17:06:53;;;;;;;;;;;;;;;;;;;;;
2021/10/23 17:10:03;;;;;;;8.30;6.40;;;;;;;21.82;49.12;101371.66;111473;1230;61048;-82
2021/10/23 17:13:15;;;;;;;7.60;6.10;;;;;;;21.82;49.09;101369.34;111280;1233;60169;-83
2021/10/23 17:16:07;;;;;;;8.30;6.10;;;;;;;21.83;49.10;101365.20;111310;1233;72577;-86
2021/10/23 17:19:15;;;;;;;8.20;6.30;;;;;;;21.83;49.11;101365.71;111166;1234;72995;-84
2021/10/23 17:22:22;;;;;;;9.30;6.90;;;;;;;21.82;49.08;101367.36;111159;1233;60167;-78
2021/10/23 17:25:40;;;;;;;;;;;;;;;;;;;;;
2021/10/23 17:29:07;;;;;;;7.20;5.90;;;;;;;21.82;49.13;101372.05;111156;1233;71201;-83
2021/10/23 17:32:07;;;;;;;;;;;;;;;;;;;;;
2021/10/23 17:35:16;;;;;;;;;;;;;;;;;;;;;
2021/10/23 17:38:38;;;;;;;;;;;;;;;;;;;;;
2021/10/23 17:42:03;;;;;;;;;;;;;;;;;;;;;
2021/10/23 17:45:32;;;;;;;;;;;;;;;;;;;;;
2021/10/23 17:48:38;;;;;;;;;;;;;;;;;;;;;
2021/10/23 17:51:43;;;;;;;;;;;;;;;;;;;;;
2021/10/23 17:54:53;;;;;;;10.30;6.90;;;;;;;21.82;49.17;101390.70;111740;1228;73351;-84
2021/10/23 17:57:58;;;;;;;8.80;6.60;;;;;;;21.81;49.18;101384.13;111755;1228;73461;-85
2021/10/23 18:01:24;;;;;;;;;;;;;;;;;;;;;
2021/10/23 18:08:03;;;;;;;9.80;6.20;;;;;;;21.80;49.30;101387.94;111567;1230;71487;-85
2021/10/23 18:11:43;;;;;;;8.70;6.40;;;;;;;21.80;49.15;101392.96;111851;1228;72700;-85
2021/10/23 18:14:50;;;;;;;7.90;6.00;;;;;;;21.80;49.17;101399.04;111865;1229;60395;-86
2021/10/23 18:22:12;;;;;;;9.10;6.40;;;;;;;21.80;49.28;101399.80;111370;1230;72760;-85
2021/10/23 18:25:36;;;;;;;;;;;;;;;;;;;;;
2021/10/23 18:28:46;;;;;;;8.70;6.00;;;;;;;21.80;49.23;101398.73;111325;1231;60200;-83
2021/10/23 18:32:15;;;;;;;8.40;6.30;;;;;;;21.79;49.16;101397.49;111074;1234;60255;-85
2021/10/23 18:35:28;;;;;;;8.00;6.20;;;;;;;21.80;49.27;101393.00;110838;1237;72466;-85
2021/10/23 18:38:53;;;;;;;8.80;6.20;;;;;;;21.79;49.34;101386.60;110621;1238;72602;-86
2021/10/23 18:42:10;;;;;;;8.70;6.50;;;;;;;21.79;49.30;101381.20;110580;1240;60817;-86
2021/10/23 18:45:10;;;;;;;8.70;6.40;;;;;;;21.80;49.31;101380.98;110708;1237;60229;-78
2021/10/23 18:48:42;;;;;;;8.90;6.30;;;;;;;21.79;49.32;101390.11;110724;1237;72511;-87
2021/10/23 18:51:43;;;;;;;10.20;6.30;;;;;;;21.79;49.15;101398.40;110848;1235;72912;-85
2021/10/23 18:54:34;;;;;;;8.70;6.40;;;;;;;21.79;49.34;101406.30;111097;1234;61124;-85
2021/10/23 18:58:07;;;;;;;;;;;;;;;;;;;;;
2021/10/23 19:01:13;;;;;;;8.20;5.90;;;;;;;21.79;49.28;101421.71;111163;1234;71420;-84
2021/10/23 19:04:38;;;;;;;;;;;;;;;;;;;;;
2021/10/23 19:07:55;;;;;;;;;;;;;;;;;;;;;
2021/10/23 19:11:10;;;;;;;9.90;6.30;;;;;;;21.78;49.45;101435.21;111316;1232;60211;-83
2021/10/23 19:14:03;;;;;;;7.60;6.20;;;;;;;21.78;49.46;101447.90;111311;1234;72454;-88
2021/10/23 19:17:12;;;;;;;;;;;;;;;;;;;;;
2021/10/23 19:20:23;;;;;;;;;;;;;;;;;;;;;
2021/10/23 19:23:35;;;;;;;10.30;6.50;;;;;;;21.78;49.27;101448.10;110896;1236;61039;-84
2021/10/23 19:26:54;;;;;;;9.80;6.60;;;;;;;21.77;49.36;101448.31;110925;1237;72354;-87
2021/10/23 19:30:16;;;;;;;8.70;6.10;;;;;;;21.77;49.40;101463.19;110926;1236;74799;-80
2021/10/23 19:33:14;;;;;;;8.50;6.80;;;;;;;21.77;49.36;101463.02;110447;1241;60274;-83
2021/10/23 19:36:46;;;;;;;7.50;6.10;;;;;;;21.77;49.50;101463.92;110026;1244;60695;-88
2021/10/23 19:39:43;;;;;;;9.50;6.90;;;;;;;21.77;49.47;101471.08;110466;1241;72694;-86
2021/10/23 19:43:09;;;;;;;;;;;;;;;;;;;;;
2021/10/23 19:46:24;;;;;;;9.30;6.70;;;;;;;21.77;49.35;101480.76;110422;1241;61470;-82
2021/10/23 19:49:50;;;;;;;7.90;6.10;;;;;;;21.77;49.49;101480.06;110168;1244;62265;-87
2021/10/23 19:53:12;;;;;;;8.90;6.60;;;;;;;21.77;49.51;101482.75;110252;1242;72582;-85
2021/10/23 19:56:15;;;;;;;8.90;6.60;;;;;;;21.76;49.44;101481.88;110240;1241;73580;-78
2021/10/23 20:02:28;;;;;;;;;;;;;;;;;;;;;
2021/10/23 20:05:15;;;;;;;9.00;6.90;;;;;;;21.76;49.44;101498.18;110762;1237;72729;-82
2021/10/23 20:09:01;;;;;;;9.70;6.70;;;;;;;21.76;49.46;101501.59;110776;1237;73602;-83
2021/10/23 20:11:52;;;;;;;9.30;7.10;;;;;;;21.76;49.35;101506.64;110656;1238;60124;-86
2021/10/23 20:15:09;;;;;;;10.40;7.60;;;;;;;21.75;49.52;101516.15;110758;1236;61308;-81
2021/10/23 20:18:19;;;;;;;;;;;;;;;21.75;49.43;101522.27;110638;1238;72373;-86
2021/10/23 20:21:25;;;;;;;8.20;6.40;;;;;;;21.73;49.55;101534.52;110251;1241;73786;-87
2021/10/23 20:24:43;;;;;;;9.10;7.20;;;;;;;21.73;49.46;101535.98;110241;1241;60278;-83
2021/10/23 20:27:49;;;;;;;9.90;6.80;;;;;;;21.74;49.53;101534.90;110513;1238;60713;-85
2021/10/23 20:31:16;;;;;;;9.70;6.60;;;;;;;21.73;49.40;101532.95;110752;1237;73957;-83
2021/10/23 20:34:19;;;;;;;9.50;6.70;;;;;;;21.73;49.37;101536.52;110749;1237;73795;-80
2021/10/23 20:37:26;;;;;;;11.00;6.80;;;;;;;21.73;49.38;101540.47;110631;1238;60349;-83
2021/10/23 20:40:12;;;;;;;9.70;7.00;;;;;;;21.73;49.58;101553.91;110663;1238;61581;-80
2021/10/23 20:43:38;;;;;;;8.50;6.70;;;;;;;21.74;49.43;101569.11;110567;1239;72550;-83
2021/10/23 20:46:55;;;;;;;;;;;;;;;;;;;;;
2021/10/23 20:49:47;;;;;;;8.80;6.70;;;;;;;21.73;49.46;101581.14;110338;1241;60450;-86
2021/10/23 20:53:20;;;;;;;9.80;7.30;;;;;;;21.73;49.54;101587.06;110680;1238;60309;-85
2021/10/23 20:56:41;;;;;;;9.10;7.30;;;;;;;21.73;49.58;101594.78;110608;1238;72844;-79
2021/10/23 20:59:53;;;;;;;9.40;6.80;;;;;;;21.73;49.74;101599.45;110714;1237;73613;-85
2021/10/23 21:03:19;;;;;;;8.00;6.30;;;;;;;21.73;49.53;101599.95;110895;1237;60406;-85
2021/10/23 21:06:28;;;;;;;8.20;6.30;;;;;;;21.73;49.58;101604.27;110531;1240;60256;-80
2021/10/23 21:09:47;;;;;;;9.00;6.80;;;;;;;21.73;49.53;101611.61;109974;1247;71795;-88